Whitleys Peak, Santa Catalina Island Weather observations

Data are for 10 minute period ending at time listed.
 Day   Time   Solar   Ave.   Ave.  Ave.  Vector    Max.   Stn.    Total
  of    of     Rad.   Air    Rel.  Wind   Wind     Wind   Baro.  Precip.
Year   Day            Temp.  Hum.  Speed  Dir.     Gust   Pres.         
2016   (PST)   W/m2    F      %     mph   deg.      mph    mb.     in.  
------------------------------------------------------------------------
  41   13:50  630.0    80   14.4     5     97.7     7.2    999.0   0.00  
  41   14:00  614.0    79   14.2     6     82.6     7.2    999.0   0.00  
  41   14:10  598.0    79   14.0     6     95.3     7.8    999.0   0.00  
  41   14:20  579.0    79   13.6     5     90.6     7.2    999.0   0.00  
  41   14:30  561.0    79   14.0     4     74.5     6.6    999.0   0.00  
  41   14:40  540.0    79   15.3     3     62.1     4.8    999.0   0.00  
  41   14:50  519.0    78   13.3     3    101.9     4.8    999.0   0.00  
  41   15:00  495.0    78   13.3     3    103.8     4.2    999.0   0.00  
  41   15:10  471.0    78   13.6     3    109.8     4.8    999.0   0.00  
  41   15:20  445.0    79   13.7     2     97.1     3.6    999.0   0.00  
  41   15:30  418.0    79   13.6     3     39.2     3.6    999.0   0.00  
  41   15:40  391.0    79   13.7     2     62.7     2.4    999.0   0.00  
  41   15:50  362.0    80   13.7     1     57.4     2.4    999.0   0.00  
  41   16:00  333.0    80   14.1     2     57.3     3.0    999.0   0.00  
  41   16:10  301.0    80   14.2     1    101.8     3.6    999.0   0.00  
  41   16:20  269.0    80   16.3     3    265.1     5.4    999.0   0.00  
  41   16:30  236.0    79   16.9     4    261.8     6.0    999.0   0.00  
  41   16:40  205.0    78   17.1     5    252.3     7.8    999.0   0.00  
  41   16:50  173.0    77   17.5     7    237.8     9.0    999.0   0.00  
  41   17:00  140.0    76   19.1     7    224.2     8.4    999.0   0.00  
  41   17:10  108.0    75   19.7     7    210.6     8.4    999.0   0.00  
  41   17:20   76.0    74   20.0     7    212.3     8.4    999.0   0.00  
  41   17:30   41.0    74   17.6     7    209.7     8.4    999.0   0.00  
  41   17:40   13.0    74   16.5     6    210.6     7.8    999.0   0.00  
  41   17:50    2.0    75   15.7     4    225.2     6.0    999.0   0.00  
  41   18:00    0.0    76   15.0     5    245.5     7.2    999.0   0.00  
  41   18:10    0.0    74   17.3     8    219.3     9.6    999.0   0.00  
  41   18:20    0.0    73   17.2     9    218.5    10.2    999.0   0.00  
  41   18:30    0.0    74   15.7     9    237.2    10.8    999.0   0.00  
  41   18:40    0.0    75   14.4    10    237.5    11.9    999.0   0.00  
  41   18:50    0.0    75   13.4    10    232.8    11.9    999.0   0.00  
  41   19:00    0.0    75   13.9     9    230.2    10.8    999.0   0.00  
  41   19:10    0.0    75   13.9    10    226.4    11.9    999.0   0.00  
  41   19:20    0.0    76   12.1     9    234.3    11.3    999.0   0.00  
  41   19:30    0.0    76   11.4     7    246.8     9.0    999.0   0.00  
  41   19:40    0.0    76   10.6     5    239.9     7.2    999.0   0.00  
  41   19:50    0.0    76   10.4     4    224.2     5.4    999.0   0.00  
  41   20:00    0.0    75   11.2     5    231.5     7.2    999.0   0.00  
  41   20:10    0.0    76   11.1     7    240.5    10.8    999.0   0.00  
  41   20:20    0.0    75   11.6     6    244.1     8.4    999.0   0.00  
  41   20:30    0.0    76   11.0     8    232.9    11.3    999.0   0.00  
  41   20:40    0.0    76   11.0     7    238.3     9.6    999.0   0.00  
  41   20:50    0.0    75   10.9     6    248.2     8.4    999.0   0.00  
  41   21:00    0.0    76   10.6     6    250.9     8.4    999.0   0.00  
  41   21:10    0.0    76   10.6     8    252.7     9.6    999.0   0.00  
  41   21:20    0.0    74   11.3     8    257.8    10.2    999.0   0.00  
  41   21:30    0.0    74   11.5     9    243.9    11.9    999.0   0.00  
  41   21:40    0.0    74   11.8     8    241.1    11.9    999.0   0.00  
  41   21:50    0.0    75   10.8     5    239.8     9.0    999.0   0.00  
  41   22:00    0.0    74   10.8     2    270.9     4.2    999.0   0.00  
  41   22:10    0.0    74   11.6     5    323.4     9.6    999.0   0.00  
  41   22:20    0.0    74   13.4     9    307.6    11.3    999.0   0.00  
  41   22:30    0.0    75   13.0     9    295.0    10.8    999.0   0.00  
  41   22:40    0.0    75   12.5     7    281.2    10.2    999.0   0.00  
  41   22:50    0.0    74   12.2     5    261.9     6.6    999.0   0.00  
  41   23:00    0.0    74   12.0     5    271.5     6.6    999.0   0.00  
  41   23:10    0.0    75   11.8     6    295.4     7.2    999.0   0.00  
  41   23:20    0.0    75   11.7     7    298.5    10.2    999.0   0.00  
  41   23:30    0.0    75   12.0     6    298.7     8.4    999.0   0.00  
  41   23:40    0.0    75   12.7     7    310.6     9.0    999.0   0.00  
  41   23:50    0.0    75   13.6     8    309.6     9.0    999.0   0.00  
  42    0:00    0.0    75   14.2     6    313.9     8.4    999.0   0.00  
  42    0:10    0.0    75   14.9     7    313.7     8.4    999.0   0.00  
  42    0:20    0.0    75   15.1     7    313.5     9.0    999.0   0.00  
  42    0:30    0.0    75   14.7     7    315.0     9.0    999.0   0.00  
  42    0:40    0.0    76   14.2     7    319.6     9.6    999.0   0.00  
  42    0:50    0.0    75   14.1     6    311.8     7.2    999.0   0.00  
  42    1:00    0.0    75   14.2     5    298.7     7.2    999.0   0.00  
  42    1:10    0.0    75   14.2     5    297.9     6.0    999.0   0.00  
  42    1:20    0.0    75   14.2     4    308.3     5.4    999.0   0.00  
  42    1:30    0.0    75   14.4     4    312.6     4.2    999.0   0.00  
  42    1:40    0.0    75   14.6     4    315.5     4.2    999.0   0.00  
  42    1:50    0.0    74   14.7     3    350.1     3.6    999.0   0.00  
  42    2:00    0.0    74   14.8     3     22.8     3.0    999.0   0.00  
  42    2:10    0.0    74   15.0     2     38.1     2.4    999.0   0.00  
  42    2:20    0.0    74   14.9     2     47.9     2.4    999.0   0.00  
  42    2:30    0.0    74   14.4     2     39.8     2.4    999.0   0.00  
  42    2:40    0.0    74   14.2     2     23.2     3.0    999.0   0.00  
  42    2:50    0.0    74   14.1     2     18.4     3.0    999.0   0.00  
  42    3:00    0.0    74   14.0     2      3.8     3.0    999.0   0.00  
  42    3:10    0.0    74   14.3     3      1.7     4.2    999.0   0.00  
  42    3:20    0.0    74   14.6     3      5.1     4.8    999.0   0.00  
  42    3:30    0.0    74   15.0     4     11.0     5.4    999.0   0.00  
  42    3:40    0.0    74   15.4     4     23.2     5.4    999.0   0.00  
  42    3:50    0.0    74   15.7     3      9.9     4.2    999.0   0.00  
  42    4:00    0.0    74   15.6     3    331.0     3.6    999.0   0.00  
  42    4:10    0.0    74   15.4     3    317.2     4.2    999.0   0.00  
  42    4:20    0.0    72   17.5     2     27.4     3.6    999.0   0.00  
  42    4:30    0.0    71   17.6     2     36.6     3.6    999.0   0.00  
  42    4:40    0.0    73   16.3     3     24.6     4.2    999.0   0.00  
  42    4:50    0.0    72   16.8     3     40.7     3.6    999.0   0.00  
  42    5:00    0.0    73   16.7     4     41.3     4.8    999.0   0.00  
  42    5:10    0.0    74   15.1     5     65.4     5.4    999.0   0.00  
  42    5:20    0.0    74   16.0     5     76.4     6.0    999.0   0.00  
  42    5:30    0.0    74   16.5     4     59.1     4.8    999.0   0.00  
  42    5:40    0.0    74   16.9     4     53.9     4.8    999.0   0.00  
  42    5:50    0.0    74   17.1     4     66.8     4.2    999.0   0.00  
  42    6:00    0.0    74   16.0     3     69.7     4.8    999.0   0.00  
  42    6:10    0.0    75   14.4     4     80.5     4.8    999.0   0.00  
  42    6:20    0.0    75   14.4     4     83.5     4.8    999.0   0.00  
  42    6:30    0.0    74   15.2     3     95.3     3.6    999.0   0.00  
  42    6:40    0.0    75   13.6     3     74.8     4.2    999.0   0.00  
  42    6:50    5.0    74   13.9     2     96.9     3.6    999.0   0.00  
  42    7:00   10.0    74   15.8     3    110.7     3.6    999.0   0.00  
  42    7:10   23.0    75   13.6     3    109.7     3.6    999.0   0.00  
  42    7:20   41.0    76   13.9     3    123.3     4.2    999.0   0.00  
  42    7:30   71.0    76   14.2     3    141.3     3.6    999.0   0.00  
  42    7:40  106.0    76   12.8     3    166.6     4.8    999.0   0.00  
  42    7:50  136.0    75   13.6     4    190.2     5.4    999.0   0.00  
  42    8:00  166.0    76   12.8     3    184.5     4.2    999.0   0.00  
  42    8:10  196.0    77   12.9     3    191.0     4.2    999.0   0.00  
  42    8:20  226.0    77   13.5     3    189.8     3.6    999.0   0.00  
  42    8:30  257.0    77   13.8     4    199.3     4.8    999.0   0.00  
  42    8:40  287.0    77   15.7     3    186.9     5.4    999.0   0.00  
  42    8:50  316.0    77   18.7     3    180.4     6.0    999.0   0.00  
  42    9:00  346.0    76   21.0     4    169.4     6.0    999.0   0.00  
  42    9:10  375.0    76   20.6     4    171.3     6.6    999.0   0.00  
  42    9:20  403.0    75   19.7     4    173.2     7.2    999.0   0.00  
  42    9:30  429.0    76   20.8     3    168.5     5.4    999.0   0.00  
  42    9:40  454.0    74   20.2     6    209.1     8.4    999.0   0.00  
  42    9:50  479.0    75   21.1     5    194.8     7.2    999.0   0.00  
  42   10:00  501.0    76   21.7     4    193.1     8.4    999.0   0.00  
  42   10:10  523.0    76   21.9     6    196.7     8.4    999.0   0.00  
  42   10:20  546.0    75   22.2     4    213.6     7.2    999.0   0.00  
  42   10:30  565.0    76   23.9     3    141.6     5.4    999.0   0.00  
  42   10:40  583.0    76   25.7     3    162.4     6.0    999.0   0.00  
  42   10:50  601.0    76   26.3     3    112.3     6.0    999.0   0.00  
  42   11:00  616.0    74   27.0     4    106.6     6.6    999.0   0.00  
  42   11:10  629.0    74   26.8     3    106.2     6.6    999.0   0.00  
  42   11:20  642.0    77   22.1     5    213.1     9.6    999.0   0.00  
  42   11:30  653.0    78   22.3     4    185.1     7.2    999.0   0.00  
  42   11:40  662.0    78   22.0     4    220.9     8.4    999.0   0.00  
  42   11:50  667.0    78   22.7     4    212.9     9.6    999.0   0.00  
  42   12:00  675.0    78   23.2     3    188.0     6.0    999.0   0.00  
  42   12:10  680.0    78   23.8     4    191.0     7.8    999.0   0.00  
  42   12:20  683.0    78   25.8     2     76.5     7.2    999.0   0.00  
  42   12:30  686.0    76   26.4     4     99.7     6.0    999.0   0.00  
  42   12:40  685.0    76   26.1     4    100.9     5.4    999.0   0.00  
  42   12:50  681.0    76   26.4     4    105.8     6.0    999.0   0.00  
  42   13:00  675.0    77   26.5     4     92.8     5.4    999.0   0.00  
  42   13:10  668.0    76   25.7     4     73.8     5.4    999.0   0.00  
  42   13:20  660.0    77   26.7     3     68.3     5.4    999.0   0.00  
  42   13:30  652.0    75   31.0     2     20.1     3.0    999.0   0.00  
  42   13:40  639.0    75   30.2     2     12.7     3.6    999.0   0.00  

Return to Whitleys Peak graphs page.


Western Regional Climate Center,wrcc@dri.edu